createdAt,value
2018-06-30T00:02:20.734Z,9.63
2018-06-30T00:05:25.351Z,9.20
2018-06-30T00:08:29.641Z,8.27
2018-06-30T00:11:34.043Z,8.70
2018-06-30T00:14:38.393Z,8.47
2018-06-30T00:17:42.926Z,8.30
2018-06-30T00:20:47.526Z,8.03
2018-06-30T00:23:51.837Z,7.93
2018-06-30T00:27:01.500Z,8.63
2018-06-30T00:30:05.801Z,8.10
2018-06-30T00:33:10.108Z,8.28
2018-06-30T00:36:14.417Z,7.60
2018-06-30T00:39:18.844Z,8.73
2018-06-30T00:42:23.197Z,7.97
2018-06-30T00:45:27.512Z,8.47
2018-06-30T00:48:31.649Z,8.03
2018-06-30T00:51:35.981Z,7.07
2018-06-30T00:54:40.352Z,7.55
2018-06-30T00:57:44.702Z,8.57
2018-06-30T01:00:49.650Z,7.30
2018-06-30T01:03:54.041Z,7.87
2018-06-30T01:06:58.372Z,6.73
2018-06-30T01:10:02.738Z,7.00
2018-06-30T01:13:07.060Z,7.57
2018-06-30T01:16:11.354Z,7.83
2018-06-30T01:19:15.694Z,7.63
2018-06-30T01:22:20.278Z,6.93
2018-06-30T01:25:24.576Z,7.23
2018-06-30T01:28:28.896Z,7.47
2018-06-30T01:31:33.432Z,7.23
2018-06-30T01:34:37.717Z,6.70
2018-06-30T01:37:42.054Z,6.87
2018-06-30T01:40:46.326Z,6.53
2018-06-30T01:43:50.461Z,7.13
2018-06-30T01:46:54.890Z,7.47
2018-06-30T01:49:59.386Z,6.53
2018-06-30T01:53:03.480Z,7.30
2018-06-30T01:56:07.785Z,6.97
2018-06-30T01:59:13.893Z,7.30
2018-06-30T02:02:18.205Z,6.50
2018-06-30T02:05:24.032Z,6.47
2018-06-30T02:08:28.532Z,6.47
2018-06-30T02:11:32.809Z,6.03
2018-06-30T02:14:37.444Z,6.77
2018-06-30T02:17:41.820Z,6.80
2018-06-30T02:20:46.343Z,6.03
2018-06-30T02:23:50.614Z,7.13
2018-06-30T02:26:54.885Z,6.80
2018-06-30T02:29:59.183Z,6.87
2018-06-30T02:33:03.472Z,7.53
2018-06-30T02:36:07.750Z,6.53
2018-06-30T02:39:12.145Z,6.77
2018-06-30T02:42:16.395Z,7.23
2018-06-30T02:45:20.886Z,6.97
2018-06-30T02:48:25.222Z,6.40
2018-06-30T02:51:29.507Z,7.07
2018-06-30T02:54:33.578Z,6.33
2018-06-30T02:57:37.899Z,6.93
2018-06-30T03:00:42.182Z,6.30
2018-06-30T03:03:46.543Z,6.20
2018-06-30T03:06:51.022Z,6.53
2018-06-30T03:09:55.398Z,6.37
2018-06-30T03:12:59.777Z,6.73
2018-06-30T03:16:04.082Z,6.77
2018-06-30T03:19:08.590Z,6.73
2018-06-30T03:22:12.859Z,6.90
2018-06-30T03:25:17.204Z,5.87
2018-06-30T03:28:21.645Z,5.73
2018-06-30T03:31:25.926Z,7.13
2018-06-30T03:34:30.197Z,6.30
2018-06-30T03:37:34.679Z,5.90
2018-06-30T03:40:39.150Z,5.63
2018-06-30T03:43:43.617Z,6.53
2018-06-30T03:46:48.178Z,7.10
2018-06-30T03:49:52.894Z,6.97
2018-06-30T03:52:57.215Z,6.17
2018-06-30T03:56:01.574Z,6.80
2018-06-30T03:59:05.929Z,7.97
2018-06-30T04:02:10.349Z,7.83
2018-06-30T04:05:14.661Z,7.53
2018-06-30T04:08:18.720Z,6.53
2018-06-30T04:11:23.156Z,6.47
2018-06-30T04:14:27.430Z,6.08
2018-06-30T04:17:32.002Z,5.90
2018-06-30T04:20:36.382Z,6.33
2018-06-30T04:23:41.042Z,6.00
2018-06-30T04:26:45.378Z,6.10
2018-06-30T04:29:49.646Z,6.97
2018-06-30T04:32:53.994Z,6.00
2018-06-30T04:35:58.362Z,5.83
2018-06-30T04:39:02.666Z,5.27
2018-06-30T04:42:07.289Z,4.87
2018-06-30T04:45:12.244Z,5.63
2018-06-30T04:48:16.513Z,5.27
2018-06-30T04:51:21.060Z,5.07
2018-06-30T04:54:25.370Z,4.65
2018-06-30T04:57:29.644Z,5.37
2018-06-30T05:00:34.170Z,4.67
2018-06-30T05:03:38.611Z,5.13
2018-06-30T05:06:42.977Z,4.80
2018-06-30T05:09:47.635Z,4.73
2018-06-30T05:12:51.962Z,6.00
2018-06-30T05:15:56.214Z,6.33
2018-06-30T05:19:00.549Z,5.10
2018-06-30T05:22:04.901Z,5.40
2018-06-30T05:25:10.209Z,5.60
2018-06-30T05:28:14.571Z,5.40
2018-06-30T05:31:18.965Z,6.23
2018-06-30T05:34:23.255Z,6.00
2018-06-30T05:37:27.533Z,6.33
2018-06-30T05:40:32.083Z,6.67
2018-06-30T05:43:36.421Z,7.70
2018-06-30T05:46:40.819Z,7.23
2018-06-30T05:49:45.081Z,8.23
2018-06-30T05:52:49.818Z,9.80
2018-06-30T05:55:54.110Z,10.07
2018-06-30T05:59:01.187Z,10.47
2018-06-30T06:02:05.647Z,11.10
2018-06-30T06:05:10.338Z,10.07
2018-06-30T06:08:15.321Z,10.70
2018-06-30T06:11:19.913Z,11.37
2018-06-30T06:14:24.321Z,11.67
2018-06-30T06:17:28.731Z,11.67
2018-06-30T06:20:33.288Z,14.07
2018-06-30T06:23:37.680Z,12.23
2018-06-30T06:26:42.219Z,12.93
2018-06-30T06:29:46.492Z,11.12
2018-06-30T06:32:51.332Z,9.40
2018-06-30T06:35:55.870Z,9.47
2018-06-30T06:39:00.155Z,9.10
2018-06-30T06:42:04.451Z,8.23
2018-06-30T06:45:08.727Z,7.63
2018-06-30T06:48:13.831Z,7.87
2018-06-30T06:51:18.125Z,7.43
2018-06-30T06:54:22.930Z,6.73
2018-06-30T06:57:27.834Z,7.17
2018-06-30T07:00:32.609Z,6.20
2018-06-30T07:03:37.731Z,6.90
2018-06-30T07:06:42.243Z,6.20
2018-06-30T07:09:46.932Z,6.28
2018-06-30T07:12:51.265Z,8.43
2018-06-30T07:15:55.553Z,5.80
2018-06-30T07:18:59.829Z,5.97
2018-06-30T07:22:04.208Z,6.50
2018-06-30T07:25:08.629Z,5.50
2018-06-30T07:28:16.617Z,6.87
2018-06-30T07:31:20.988Z,6.73
2018-06-30T07:34:25.457Z,6.73
2018-06-30T07:37:29.796Z,5.63
2018-06-30T07:40:34.142Z,6.17
2018-06-30T07:43:38.561Z,6.33
2018-06-30T07:46:42.829Z,5.87
2018-06-30T07:49:47.250Z,5.67
2018-06-30T07:52:51.898Z,6.17
2018-06-30T07:55:56.178Z,6.17
2018-06-30T07:59:00.534Z,5.60
2018-06-30T08:02:04.919Z,5.23
2018-06-30T08:05:10.006Z,5.37
2018-06-30T08:08:14.337Z,5.83
2018-06-30T08:11:18.742Z,6.20
2018-06-30T08:14:23.720Z,6.10
2018-06-30T08:17:28.285Z,6.17
2018-06-30T08:20:33.679Z,6.03
2018-06-30T08:23:38.011Z,6.50
2018-06-30T08:26:42.318Z,6.63
2018-06-30T08:29:46.694Z,6.60
2018-06-30T08:32:51.290Z,6.97
2018-06-30T08:35:55.730Z,6.93
2018-06-30T08:39:00.042Z,7.23
2018-06-30T08:42:04.415Z,6.67
2018-06-30T08:45:08.715Z,6.50
2018-06-30T08:48:14.228Z,7.20
2018-06-30T08:51:18.497Z,7.37
2018-06-30T08:54:22.656Z,7.17
2018-06-30T08:57:26.952Z,7.33
2018-06-30T09:00:31.371Z,7.10
2018-06-30T09:03:36.894Z,7.20
2018-06-30T09:06:42.295Z,7.50
2018-06-30T09:09:46.594Z,8.03
2018-06-30T09:12:51.161Z,7.13
2018-06-30T09:15:55.923Z,7.07
2018-06-30T09:19:00.285Z,7.40
2018-06-30T09:22:04.902Z,6.63
2018-06-30T09:25:09.250Z,6.90
2018-06-30T09:28:13.758Z,7.20
2018-06-30T09:31:18.639Z,7.00
2018-06-30T09:34:23.277Z,6.50
2018-06-30T09:37:28.164Z,6.20
2018-06-30T09:40:32.601Z,7.63
2018-06-30T09:43:38.053Z,7.70
2018-06-30T09:46:42.386Z,6.97
2018-06-30T09:49:46.868Z,7.23
2018-06-30T09:52:51.239Z,7.40
2018-06-30T09:55:55.808Z,6.83
2018-06-30T09:59:00.151Z,6.40
2018-06-30T10:02:04.590Z,6.77
2018-06-30T10:05:09.718Z,5.83
2018-06-30T10:08:14.283Z,5.43
2018-06-30T10:11:18.543Z,5.37
2018-06-30T10:14:23.002Z,5.60
2018-06-30T10:17:27.296Z,5.07
2018-06-30T10:20:31.581Z,4.33
2018-06-30T10:23:37.590Z,4.97
2018-06-30T10:26:41.897Z,4.43
2018-06-30T10:29:46.173Z,5.00
2018-06-30T10:32:50.512Z,4.70
2018-06-30T10:35:54.893Z,4.83
2018-06-30T10:38:59.950Z,5.53
2018-06-30T10:42:04.541Z,4.37
2018-06-30T10:45:08.972Z,4.20
2018-06-30T10:48:14.369Z,3.70
2018-06-30T10:51:18.729Z,3.40
2018-06-30T10:54:23.026Z,3.30
2018-06-30T10:57:27.770Z,3.83
2018-06-30T11:00:32.803Z,3.73
2018-06-30T11:03:37.709Z,3.57
2018-06-30T11:06:42.141Z,2.63
2018-06-30T11:09:47.491Z,4.20
2018-06-30T11:12:51.889Z,4.47
2018-06-30T11:15:56.229Z,4.17
2018-06-30T11:19:00.587Z,3.67
2018-06-30T11:22:04.896Z,4.50
2018-06-30T11:25:10.486Z,4.70
2018-06-30T11:28:14.914Z,3.60
2018-06-30T11:31:19.284Z,3.62
2018-06-30T11:34:23.604Z,4.03
2018-06-30T11:37:28.175Z,4.00
2018-06-30T11:40:32.486Z,4.10
2018-06-30T11:43:38.735Z,4.20
2018-06-30T11:46:44.088Z,4.37
2018-06-30T11:49:48.371Z,4.60
2018-06-30T11:52:52.782Z,4.57
2018-06-30T11:55:57.189Z,3.40
2018-06-30T11:59:01.591Z,3.50
2018-06-30T12:02:06.234Z,3.10
2018-06-30T12:05:10.489Z,3.13
2018-06-30T12:08:15.273Z,2.70
2018-06-30T12:11:19.900Z,2.73
2018-06-30T12:14:24.177Z,2.97
2018-06-30T12:17:28.521Z,3.00
2018-06-30T12:20:32.873Z,2.93
2018-06-30T12:23:37.626Z,2.90
2018-06-30T12:26:42.216Z,2.97
2018-06-30T12:29:47.507Z,2.60
2018-06-30T12:32:51.980Z,2.70
2018-06-30T12:35:56.247Z,2.90
2018-06-30T12:39:00.778Z,2.97
2018-06-30T12:42:05.065Z,3.63
2018-06-30T12:45:09.578Z,2.53
2018-06-30T12:48:13.880Z,2.47
2018-06-30T12:51:18.212Z,2.87
2018-06-30T12:54:24.028Z,2.83
2018-06-30T12:57:29.179Z,3.00
2018-06-30T13:00:33.627Z,2.80
2018-06-30T13:03:38.002Z,2.53
2018-06-30T13:06:43.018Z,2.50
2018-06-30T13:09:47.341Z,2.73
2018-06-30T13:12:53.315Z,2.83
2018-06-30T13:15:57.700Z,3.17
2018-06-30T13:19:02.601Z,3.23
2018-06-30T13:22:07.076Z,2.83
2018-06-30T13:25:11.426Z,2.87
2018-06-30T13:28:15.721Z,2.90
2018-06-30T13:31:20.217Z,2.87
2018-06-30T13:34:24.682Z,3.30
2018-06-30T13:37:29.008Z,3.10
2018-06-30T13:40:33.721Z,3.37
2018-06-30T13:43:38.135Z,3.90
2018-06-30T13:46:42.896Z,3.97
2018-06-30T13:49:47.257Z,3.77
2018-06-30T13:52:53.463Z,3.97
2018-06-30T13:55:57.839Z,3.47
2018-06-30T13:59:02.525Z,3.70
2018-06-30T14:02:07.247Z,3.77
2018-06-30T14:05:11.472Z,4.60
2018-06-30T14:08:15.978Z,5.67
2018-06-30T14:11:20.388Z,5.67
2018-06-30T14:14:24.696Z,4.47
2018-06-30T14:22:52.112Z,4.37
2018-06-30T14:25:56.775Z,5.40
2018-06-30T14:29:01.087Z,5.67
2018-06-30T14:32:05.482Z,5.23
2018-06-30T14:35:10.131Z,5.70
2018-06-30T14:38:14.236Z,5.50
2018-06-30T14:41:18.565Z,5.53
2018-06-30T14:44:31.964Z,5.27
2018-06-30T14:47:36.838Z,5.73
2018-06-30T14:50:41.275Z,5.70
2018-06-30T14:53:46.673Z,6.20
2018-06-30T14:56:50.972Z,6.03
2018-06-30T14:59:55.754Z,5.33
2018-06-30T15:03:00.272Z,6.27
2018-06-30T15:06:04.581Z,6.70
2018-06-30T15:09:13.565Z,6.07
2018-06-30T15:12:20.209Z,5.90
2018-06-30T15:15:24.977Z,6.20
2018-06-30T15:18:29.436Z,6.10
2018-06-30T15:21:34.454Z,6.90
2018-06-30T15:24:44.586Z,5.97
2018-06-30T15:27:49.063Z,5.78
2018-06-30T15:30:53.809Z,5.90
2018-06-30T15:33:58.290Z,6.53
2018-06-30T15:37:03.366Z,7.13
2018-06-30T15:40:08.766Z,6.17
2018-06-30T15:43:13.253Z,6.15
2018-06-30T15:46:18.039Z,6.53
2018-06-30T15:49:23.076Z,5.90
2018-06-30T15:52:28.098Z,6.27
2018-06-30T15:55:35.371Z,6.57
2018-06-30T15:58:40.929Z,5.87
2018-06-30T16:01:45.464Z,5.70
2018-06-30T16:04:50.416Z,6.00
2018-06-30T16:07:55.630Z,5.63
2018-06-30T16:11:00.100Z,5.73
2018-06-30T16:14:05.855Z,5.63
2018-06-30T16:17:11.148Z,5.28
2018-06-30T16:20:16.343Z,5.00
2018-06-30T16:23:20.929Z,5.50
2018-06-30T16:26:26.555Z,5.83
2018-06-30T16:29:30.725Z,5.43
2018-06-30T16:32:36.472Z,5.70
2018-06-30T16:35:40.817Z,5.73
2018-06-30T16:38:45.705Z,5.77
2018-06-30T16:41:50.397Z,5.73
2018-06-30T16:44:55.115Z,5.50
2018-06-30T16:47:59.597Z,5.00
2018-06-30T16:51:04.960Z,5.17
2018-06-30T16:54:10.297Z,6.10
2018-06-30T16:57:15.289Z,5.40
2018-06-30T17:00:21.514Z,5.20
2018-06-30T17:03:27.126Z,5.37
2018-06-30T17:06:31.588Z,5.47
2018-06-30T17:09:35.912Z,5.27
2018-06-30T17:12:40.665Z,5.00
2018-06-30T17:15:44.997Z,5.00
2018-06-30T17:18:49.709Z,5.77
2018-06-30T17:21:54.134Z,5.97
2018-06-30T17:24:58.706Z,6.70
2018-06-30T17:28:03.302Z,5.30
2018-06-30T17:31:07.897Z,6.70
2018-06-30T17:34:12.351Z,6.77
2018-06-30T17:37:16.915Z,4.47
2018-06-30T17:40:21.414Z,4.30
2018-06-30T17:43:25.933Z,4.13
2018-06-30T17:46:30.858Z,4.10
2018-06-30T17:49:35.304Z,4.10
2018-06-30T17:52:40.109Z,3.47
2018-06-30T17:55:44.865Z,3.63
2018-06-30T17:58:49.413Z,2.90
2018-06-30T18:01:53.756Z,2.97
2018-06-30T18:04:58.594Z,3.13
2018-06-30T18:08:03.472Z,2.87
2018-06-30T18:11:08.218Z,2.80
2018-06-30T18:14:12.837Z,2.87
2018-06-30T18:17:18.254Z,2.50
2018-06-30T18:20:25.329Z,2.60
2018-06-30T18:23:30.370Z,8.23
2018-06-30T18:26:34.890Z,5.07
2018-06-30T18:29:39.509Z,7.80
2018-06-30T18:32:44.062Z,4.60
2018-06-30T18:35:48.560Z,4.20
2018-06-30T18:38:52.987Z,2.47
2018-06-30T18:41:57.537Z,2.53
2018-06-30T18:45:02.337Z,1.80
2018-06-30T18:48:06.761Z,3.83
2018-06-30T18:51:11.145Z,2.53
2018-06-30T18:54:16.128Z,3.40
2018-06-30T18:57:20.364Z,2.63
2018-06-30T19:00:24.984Z,3.13
2018-06-30T19:03:29.792Z,2.90
2018-06-30T19:06:34.329Z,2.63
2018-06-30T19:09:38.521Z,3.07
2018-06-30T19:12:43.295Z,3.53
2018-06-30T19:15:48.414Z,5.10
2018-06-30T19:18:53.266Z,3.73
2018-06-30T19:21:57.716Z,3.23
2018-06-30T19:25:02.162Z,2.73
2018-06-30T19:28:07.874Z,2.33
2018-06-30T19:31:12.199Z,2.57
2018-06-30T19:34:16.874Z,4.27
2018-06-30T19:37:21.561Z,3.23
2018-06-30T19:40:25.972Z,4.10
2018-06-30T19:43:30.676Z,2.50
2018-06-30T19:46:35.215Z,1.40
2018-06-30T19:49:39.619Z,2.33
2018-06-30T19:52:44.773Z,1.80
2018-06-30T19:55:49.175Z,2.10
2018-06-30T19:58:54.752Z,1.60
2018-06-30T20:01:59.238Z,2.00
2018-06-30T20:05:03.686Z,1.80
2018-06-30T20:08:09.522Z,1.73
2018-06-30T20:11:14.729Z,1.80
2018-06-30T20:14:19.049Z,2.67
2018-06-30T20:17:23.549Z,2.80
2018-06-30T20:20:27.893Z,2.50
2018-06-30T20:23:32.902Z,1.90
2018-06-30T20:26:37.527Z,2.17
2018-06-30T20:29:42.910Z,1.90
2018-06-30T20:32:47.262Z,2.20
2018-06-30T20:35:52.242Z,1.90
2018-06-30T20:38:57.132Z,1.57
2018-06-30T20:42:01.879Z,1.57
2018-06-30T20:45:07.045Z,2.03
2018-06-30T20:48:11.431Z,1.63
2018-06-30T20:51:15.953Z,1.37
2018-06-30T20:54:20.392Z,1.30
2018-06-30T20:57:24.857Z,1.37
2018-06-30T21:00:29.664Z,1.17
2018-06-30T21:03:34.375Z,1.20
2018-06-30T21:06:38.908Z,1.27
2018-06-30T21:09:44.626Z,1.40
2018-06-30T21:12:49.022Z,1.52
2018-06-30T21:15:53.542Z,1.80
2018-06-30T21:18:57.883Z,1.60
2018-06-30T21:22:02.589Z,1.72
2018-06-30T21:25:06.887Z,2.23
2018-06-30T21:28:11.358Z,1.70
2018-06-30T21:31:15.609Z,1.40
2018-06-30T21:34:20.235Z,1.00
2018-06-30T21:37:24.512Z,1.50
2018-06-30T21:40:28.793Z,1.17
2018-06-30T21:43:34.098Z,1.17
2018-06-30T21:46:38.602Z,0.80
2018-06-30T21:49:43.004Z,1.17
2018-06-30T21:52:48.024Z,1.00
2018-06-30T21:55:53.026Z,0.90
2018-06-30T21:58:58.158Z,0.90
2018-06-30T22:02:02.658Z,0.70
2018-06-30T22:05:07.038Z,1.23
2018-06-30T22:08:11.639Z,1.10
2018-06-30T22:11:16.286Z,1.25
2018-06-30T22:14:21.447Z,0.77
2018-06-30T22:17:26.121Z,0.70
2018-06-30T22:20:31.382Z,0.73
2018-06-30T22:23:36.859Z,0.70
2018-06-30T22:26:42.112Z,0.63
2018-06-30T22:29:46.623Z,0.77
2018-06-30T22:32:51.049Z,0.83
2018-06-30T22:35:56.778Z,0.60
2018-06-30T22:39:01.714Z,0.80
2018-06-30T22:42:07.262Z,0.50
2018-06-30T22:45:11.788Z,0.50
2018-06-30T22:48:16.728Z,0.40
2018-06-30T22:51:21.850Z,0.50
2018-06-30T22:54:26.663Z,0.47
2018-06-30T22:57:32.509Z,0.60
2018-06-30T23:00:36.942Z,0.73
2018-06-30T23:03:41.411Z,0.57
2018-06-30T23:06:46.272Z,0.57
2018-06-30T23:09:51.037Z,0.60
2018-06-30T23:12:56.282Z,0.70
2018-06-30T23:16:01.107Z,0.70
2018-06-30T23:19:05.513Z,0.70
2018-06-30T23:22:10.126Z,0.60
2018-06-30T23:25:14.615Z,0.73
2018-06-30T23:28:18.969Z,0.67
2018-06-30T23:31:23.901Z,0.67
2018-06-30T23:34:28.192Z,0.73
2018-06-30T23:37:32.550Z,0.70
2018-06-30T23:40:36.982Z,0.60
2018-06-30T23:43:41.131Z,0.73
2018-06-30T23:46:45.536Z,0.70
2018-06-30T23:49:50.216Z,0.80
2018-06-30T23:52:54.866Z,0.60
2018-06-30T23:55:59.309Z,0.73
2018-06-30T23:59:03.658Z,0.80
